createdAt,value
2024-04-06T00:00:11.122Z,12.70
2024-04-06T00:01:11.089Z,12.60
2024-04-06T00:02:11.069Z,12.58
2024-04-06T00:03:11.061Z,12.61
2024-04-06T00:04:11.104Z,12.57
2024-04-06T00:05:11.079Z,12.58
2024-04-06T00:06:11.060Z,12.60
2024-04-06T00:07:11.033Z,12.67
2024-04-06T00:08:16.725Z,12.70
2024-04-06T00:09:11.995Z,12.70
2024-04-06T00:10:10.996Z,12.70
2024-04-06T00:11:11.067Z,12.70
2024-04-06T00:12:11.306Z,12.68
2024-04-06T00:13:10.954Z,12.67
2024-04-06T00:14:10.943Z,12.70
2024-04-06T00:15:10.938Z,12.70
2024-04-06T00:16:10.977Z,12.68
2024-04-06T00:17:10.950Z,12.65
2024-04-06T00:18:10.940Z,12.68
2024-04-06T00:19:10.894Z,12.75
2024-04-06T00:20:10.988Z,12.72
2024-04-06T00:21:10.899Z,12.70
2024-04-06T00:22:10.855Z,12.70
2024-04-06T00:23:11.028Z,12.73
2024-04-06T00:24:10.839Z,12.72
2024-04-06T00:25:10.830Z,12.73
2024-04-06T00:26:11.139Z,12.85
2024-04-06T00:27:10.813Z,12.76
2024-04-06T00:28:10.803Z,12.78
2024-04-06T00:29:10.826Z,12.79
2024-04-06T00:30:10.799Z,12.80
2024-04-06T00:31:10.756Z,12.85
2024-04-06T00:32:10.761Z,12.85
2024-04-06T00:33:10.750Z,12.90
2024-04-06T00:34:10.726Z,12.94
2024-04-06T00:35:10.800Z,12.98
2024-04-06T00:36:10.998Z,12.91
2024-04-06T00:37:10.741Z,12.94
2024-04-06T00:38:10.776Z,12.98
2024-04-06T00:39:10.676Z,12.93
2024-04-06T00:40:10.668Z,12.90
2024-04-06T00:41:10.684Z,12.98
2024-04-06T00:42:10.671Z,12.98
2024-04-06T00:43:10.654Z,13.03
2024-04-06T00:44:10.634Z,13.03
2024-04-06T00:45:10.685Z,12.98
2024-04-06T00:46:10.603Z,13.00
2024-04-06T00:47:10.610Z,13.00
2024-04-06T00:48:10.892Z,13.01
2024-04-06T00:49:10.579Z,13.05
2024-04-06T00:50:10.577Z,12.94
2024-04-06T00:51:10.554Z,13.00
2024-04-06T00:52:10.542Z,13.01
2024-04-06T00:53:10.626Z,13.00
2024-04-06T00:54:10.566Z,13.01
2024-04-06T00:55:10.509Z,13.03
2024-04-06T00:56:10.498Z,13.03
2024-04-06T00:57:10.562Z,13.03
2024-04-06T00:58:10.475Z,12.91
2024-04-06T00:59:10.496Z,12.90
2024-04-06T01:00:10.459Z,12.86
2024-04-06T01:01:10.528Z,12.94
2024-04-06T01:02:10.434Z,12.76
2024-04-06T01:03:10.452Z,12.79
2024-04-06T01:04:10.417Z,12.80
2024-04-06T01:05:10.426Z,12.80
2024-04-06T01:06:10.471Z,12.73
2024-04-06T01:07:10.482Z,12.80
2024-04-06T01:08:10.385Z,12.75
2024-04-06T01:09:10.404Z,12.72
2024-04-06T01:10:10.346Z,12.68
2024-04-06T01:11:10.393Z,12.72
2024-04-06T01:12:10.322Z,12.70
2024-04-06T01:13:10.414Z,12.68
2024-04-06T01:14:10.303Z,12.72
2024-04-06T01:15:10.301Z,12.78
2024-04-06T01:16:10.288Z,12.72
2024-04-06T01:17:10.303Z,12.70
2024-04-06T01:18:10.501Z,12.68
2024-04-06T01:19:10.386Z,12.73
2024-04-06T01:20:10.267Z,12.72
2024-04-06T01:21:10.242Z,12.70
2024-04-06T01:22:10.226Z,12.68
2024-04-06T01:23:10.240Z,12.73
2024-04-06T01:24:10.488Z,12.72
2024-04-06T01:25:10.207Z,12.64
2024-04-06T01:26:10.177Z,12.61
2024-04-06T01:27:10.172Z,12.46
2024-04-06T01:28:10.160Z,12.46
2024-04-06T01:29:10.167Z,12.54
2024-04-06T01:30:10.269Z,12.50
2024-04-06T01:31:10.127Z,12.43
2024-04-06T01:32:10.122Z,12.50
2024-04-06T01:33:10.150Z,12.49
2024-04-06T01:34:10.095Z,12.46
2024-04-06T01:35:10.346Z,12.46
2024-04-06T01:36:10.082Z,12.40
2024-04-06T01:37:10.062Z,12.37
2024-04-06T01:38:10.051Z,12.31
2024-04-06T01:39:10.055Z,12.24
2024-04-06T01:40:10.055Z,12.20
2024-04-06T01:41:10.257Z,12.22
2024-04-06T01:42:10.010Z,12.18
2024-04-06T01:43:10.022Z,12.22
2024-04-06T01:44:09.989Z,12.22
2024-04-06T01:45:09.994Z,12.18
2024-04-06T01:46:09.967Z,12.15
2024-04-06T01:47:10.236Z,12.04
2024-04-06T01:48:09.946Z,12.03
2024-04-06T01:49:10.085Z,12.00
2024-04-06T01:50:09.925Z,12.06
2024-04-06T01:51:09.923Z,11.99
2024-04-06T01:52:09.924Z,11.83
2024-04-06T01:53:09.957Z,11.91
2024-04-06T01:54:09.926Z,11.88
2024-04-06T01:55:10.190Z,11.81
2024-04-06T01:56:09.880Z,11.91
2024-04-06T01:57:09.859Z,11.87
2024-04-06T01:58:10.008Z,11.78
2024-04-06T01:59:09.829Z,11.90
2024-04-06T02:00:09.928Z,11.70
2024-04-06T02:01:09.808Z,11.72
2024-04-06T02:02:09.804Z,11.78
2024-04-06T02:03:10.029Z,11.70
2024-04-06T02:04:09.789Z,11.80
2024-04-06T02:05:09.794Z,11.77
2024-04-06T02:06:09.941Z,11.81
2024-04-06T02:07:09.745Z,11.68
2024-04-06T02:08:09.740Z,11.75
2024-04-06T02:09:10.050Z,11.77
2024-04-06T02:10:09.729Z,11.75
2024-04-06T02:11:09.704Z,11.70
2024-04-06T02:12:09.694Z,11.68
2024-04-06T02:13:09.685Z,11.77
2024-04-06T02:14:09.672Z,11.77
2024-04-06T02:15:09.951Z,11.69
2024-04-06T02:16:09.667Z,11.72
2024-04-06T02:17:09.646Z,11.68
2024-04-06T02:18:09.634Z,11.70
2024-04-06T02:19:09.653Z,11.65
2024-04-06T02:20:09.897Z,11.62
2024-04-06T02:21:09.654Z,11.63
2024-04-06T02:22:09.597Z,11.70
2024-04-06T02:23:09.583Z,11.66
2024-04-06T02:24:09.577Z,11.73
2024-04-06T02:25:09.601Z,11.75
2024-04-06T02:26:09.836Z,11.75
2024-04-06T02:27:09.568Z,11.73
2024-04-06T02:28:09.525Z,11.77
2024-04-06T02:29:09.515Z,11.73
2024-04-06T02:30:09.668Z,11.80
2024-04-06T02:31:09.500Z,11.70
2024-04-06T02:32:09.507Z,11.80
2024-04-06T02:33:09.538Z,11.75
2024-04-06T02:34:09.465Z,11.66
2024-04-06T02:35:09.462Z,11.72
2024-04-06T02:36:09.481Z,11.70
2024-04-06T02:37:09.496Z,11.68
2024-04-06T02:38:09.421Z,11.65
2024-04-06T02:39:09.476Z,11.68
2024-04-06T02:40:09.412Z,11.65
2024-04-06T02:41:09.388Z,11.68
2024-04-06T02:42:09.398Z,11.57
2024-04-06T02:43:09.397Z,11.68
2024-04-06T02:44:09.357Z,11.65
2024-04-06T02:45:09.387Z,11.66
2024-04-06T02:46:09.336Z,11.70
2024-04-06T02:47:09.401Z,11.70
2024-04-06T02:48:09.312Z,11.75
2024-04-06T02:49:09.305Z,11.77
2024-04-06T02:50:09.311Z,11.78
2024-04-06T02:51:09.314Z,11.77
2024-04-06T02:52:09.272Z,11.83
2024-04-06T02:53:09.600Z,11.80
2024-04-06T02:54:09.254Z,11.75
2024-04-06T02:55:09.257Z,11.81
2024-04-06T02:56:09.241Z,11.87
2024-04-06T02:57:09.252Z,11.83
2024-04-06T02:58:09.231Z,11.83
2024-04-06T02:59:09.191Z,11.77
2024-04-06T03:00:09.476Z,11.78
2024-04-06T03:01:09.207Z,11.84
2024-04-06T03:02:09.169Z,11.70
2024-04-06T03:03:09.168Z,11.69
2024-04-06T03:04:09.419Z,11.81
2024-04-06T03:05:09.226Z,11.86
2024-04-06T03:06:09.126Z,11.83
2024-04-06T03:07:09.141Z,11.81
2024-04-06T03:08:09.103Z,11.90
2024-04-06T03:09:09.140Z,11.90
2024-04-06T03:10:09.084Z,11.88
2024-04-06T03:11:09.133Z,11.90
2024-04-06T03:12:09.072Z,11.91
2024-04-06T03:13:09.050Z,11.94
2024-04-06T03:14:09.040Z,11.94
2024-04-06T03:15:09.067Z,11.90
2024-04-06T03:16:09.026Z,11.99
2024-04-06T03:17:09.308Z,12.03
2024-04-06T03:18:08.998Z,11.87
2024-04-06T03:19:08.984Z,11.97
2024-04-06T03:20:09.024Z,11.94
2024-04-06T03:21:09.004Z,12.02
2024-04-06T03:22:08.956Z,12.00
2024-04-06T03:23:08.962Z,12.06
2024-04-06T03:24:08.938Z,12.03
2024-04-06T03:25:08.931Z,12.06
2024-04-06T03:26:08.965Z,12.07
2024-04-06T03:27:08.905Z,12.13
2024-04-06T03:28:08.906Z,12.04
2024-04-06T03:29:08.878Z,12.04
2024-04-06T03:30:08.875Z,12.09
2024-04-06T03:31:08.883Z,12.18
2024-04-06T03:32:08.876Z,12.13
2024-04-06T03:33:08.842Z,12.17
2024-04-06T03:34:10.472Z,12.22
2024-04-06T03:35:08.826Z,12.24
2024-04-06T03:36:08.816Z,12.22
2024-04-06T03:37:08.802Z,12.24
2024-04-06T03:38:08.857Z,12.20
2024-04-06T03:39:08.811Z,12.20
2024-04-06T03:40:08.763Z,12.18
2024-04-06T03:41:08.792Z,12.22
2024-04-06T03:42:08.760Z,12.22
2024-04-06T03:43:08.745Z,12.20
2024-04-06T03:44:08.754Z,12.24
2024-04-06T03:45:08.821Z,12.24
2024-04-06T03:46:08.726Z,12.27
2024-04-06T03:47:08.695Z,12.24
2024-04-06T03:48:08.864Z,12.21
2024-04-06T03:49:08.671Z,12.21
2024-04-06T03:50:08.693Z,12.36
2024-04-06T03:51:08.657Z,12.36
2024-04-06T03:52:08.647Z,12.31
2024-04-06T03:53:08.636Z,12.28
2024-04-06T03:54:08.658Z,12.39
2024-04-06T03:55:08.625Z,12.32
2024-04-06T03:56:08.633Z,12.29
2024-04-06T03:57:08.586Z,12.36
2024-04-06T03:58:08.585Z,12.37
2024-04-06T03:59:08.591Z,12.45
2024-04-06T04:00:08.566Z,12.43
2024-04-06T04:01:08.546Z,12.47
2024-04-06T04:02:08.547Z,12.47
2024-04-06T04:03:08.531Z,12.54
2024-04-06T04:04:08.533Z,12.47
2024-04-06T04:05:08.776Z,12.47
2024-04-06T04:06:08.524Z,12.49
2024-04-06T04:07:08.478Z,12.43
2024-04-06T04:08:08.506Z,12.47
2024-04-06T04:09:08.461Z,12.45
2024-04-06T04:10:08.450Z,12.49
2024-04-06T04:11:08.473Z,12.50
2024-04-06T04:12:08.431Z,12.53
2024-04-06T04:13:08.423Z,12.55
2024-04-06T04:14:08.472Z,12.45
2024-04-06T04:15:08.432Z,12.50
2024-04-06T04:16:08.401Z,12.50
2024-04-06T04:17:08.395Z,12.49
2024-04-06T04:18:08.368Z,12.43
2024-04-06T04:19:08.382Z,12.43
2024-04-06T04:20:08.379Z,12.45
2024-04-06T04:21:08.332Z,12.47
2024-04-06T04:22:08.422Z,12.42
2024-04-06T04:23:08.416Z,12.45
2024-04-06T04:24:08.302Z,12.45
2024-04-06T04:25:08.299Z,12.46
2024-04-06T04:26:08.309Z,12.46
2024-04-06T04:27:08.293Z,12.43
2024-04-06T04:28:08.314Z,12.46
2024-04-06T04:29:08.262Z,12.35
2024-04-06T04:30:08.249Z,12.32
2024-04-06T04:31:08.231Z,12.39
2024-04-06T04:32:08.244Z,12.36
2024-04-06T04:33:08.234Z,12.27
2024-04-06T04:34:08.232Z,12.31
2024-04-06T04:35:08.202Z,12.39
2024-04-06T04:36:08.223Z,12.29
2024-04-06T04:37:08.171Z,12.31
2024-04-06T04:38:08.193Z,12.31
2024-04-06T04:39:08.148Z,12.24
2024-04-06T04:40:08.168Z,12.21
2024-04-06T04:41:08.124Z,12.15
2024-04-06T04:42:08.130Z,12.12
2024-04-06T04:43:08.106Z,12.13
2024-04-06T04:44:24.731Z,12.17
2024-04-06T04:45:09.219Z,12.07
2024-04-06T04:46:08.081Z,12.07
2024-04-06T04:47:08.304Z,12.10
2024-04-06T04:48:08.065Z,12.07
2024-04-06T04:49:08.112Z,12.02
2024-04-06T04:50:08.131Z,12.07
2024-04-06T04:51:08.026Z,12.00
2024-04-06T04:52:08.164Z,12.00
2024-04-06T04:53:08.037Z,11.95
2024-04-06T04:54:07.994Z,12.00
2024-04-06T04:55:08.258Z,11.83
2024-04-06T04:56:07.994Z,11.87
2024-04-06T04:57:08.498Z,11.91
2024-04-06T04:58:08.121Z,11.86
2024-04-06T04:59:07.939Z,11.87
2024-04-06T05:00:07.928Z,11.88
2024-04-06T05:01:07.947Z,11.81
2024-04-06T05:02:07.936Z,11.80
2024-04-06T05:03:07.903Z,11.77
2024-04-06T05:04:08.190Z,11.72
2024-04-06T05:05:07.887Z,11.65
2024-04-06T05:06:07.866Z,11.72
2024-04-06T05:07:07.881Z,11.68
2024-04-06T05:08:07.846Z,11.62
2024-04-06T05:09:07.983Z,11.55
2024-04-06T05:10:07.823Z,11.59
2024-04-06T05:11:07.819Z,11.54
2024-04-06T05:12:07.803Z,11.57
2024-04-06T05:13:07.844Z,11.54
2024-04-06T05:14:07.815Z,11.55
2024-04-06T05:15:08.035Z,11.54
2024-04-06T05:16:07.781Z,11.51
2024-04-06T05:17:07.748Z,11.55
2024-04-06T05:18:07.865Z,11.54
2024-04-06T05:19:07.755Z,11.66
2024-04-06T05:20:07.730Z,11.62
2024-04-06T05:21:07.703Z,11.65
2024-04-06T05:22:07.839Z,11.70
2024-04-06T05:23:07.684Z,11.77
2024-04-06T05:24:07.672Z,11.84
2024-04-06T05:25:07.743Z,11.91
2024-04-06T05:26:07.689Z,11.91
2024-04-06T05:27:07.644Z,11.95
2024-04-06T05:28:07.911Z,11.88
2024-04-06T05:29:07.619Z,11.90
2024-04-06T05:30:07.613Z,11.90
2024-04-06T05:31:07.643Z,11.88
2024-04-06T05:32:07.592Z,11.91
2024-04-06T05:33:07.580Z,11.95
2024-04-06T05:34:07.608Z,12.04
2024-04-06T05:35:07.635Z,11.99
2024-04-06T05:36:07.566Z,11.94
2024-04-06T05:37:07.625Z,12.09
2024-04-06T05:38:07.534Z,12.06
2024-04-06T05:39:07.544Z,12.10
2024-04-06T05:40:07.666Z,12.24
2024-04-06T05:41:07.494Z,12.35
2024-04-06T05:42:07.641Z,12.37
2024-04-06T05:43:07.493Z,12.42
2024-04-06T05:44:07.710Z,12.47
2024-04-06T05:45:07.466Z,12.45
2024-04-06T05:46:07.484Z,12.60
2024-04-06T05:47:07.585Z,12.68
2024-04-06T05:48:07.616Z,12.68
2024-04-06T05:49:07.457Z,12.73
2024-04-06T05:50:07.405Z,12.73
2024-04-06T05:51:07.428Z,12.86
2024-04-06T05:52:07.391Z,12.80
2024-04-06T05:53:07.371Z,12.83
2024-04-06T05:54:07.363Z,12.86
2024-04-06T05:55:07.515Z,12.87
2024-04-06T05:56:07.359Z,12.98
2024-04-06T05:57:07.327Z,12.98
2024-04-06T05:58:07.333Z,13.01
2024-04-06T05:59:07.554Z,13.05
2024-04-06T06:00:07.306Z,13.12
2024-04-06T06:01:07.310Z,13.12
2024-04-06T06:02:07.427Z,13.12
2024-04-06T06:03:07.316Z,13.20
2024-04-06T06:04:07.531Z,13.23
2024-04-06T06:05:08.165Z,13.25
2024-04-06T06:06:07.293Z,13.33
2024-04-06T06:07:07.221Z,13.37
2024-04-06T06:08:07.349Z,13.31
2024-04-06T06:09:07.209Z,13.37
2024-04-06T06:10:07.198Z,13.39
2024-04-06T06:11:07.225Z,13.49
2024-04-06T06:12:07.220Z,13.41
2024-04-06T06:13:07.171Z,13.49
2024-04-06T06:14:07.174Z,13.60
2024-04-06T06:15:07.140Z,13.60
2024-04-06T06:16:07.151Z,13.63
2024-04-06T06:17:07.118Z,13.63
2024-04-06T06:18:07.143Z,13.78
2024-04-06T06:19:07.100Z,13.72
2024-04-06T06:20:07.096Z,13.85
2024-04-06T06:21:07.082Z,13.87
2024-04-06T06:22:07.093Z,13.85
2024-04-06T06:23:07.056Z,13.86
2024-04-06T06:24:07.063Z,13.86
2024-04-06T06:25:07.060Z,13.95
2024-04-06T06:26:07.025Z,13.96
2024-04-06T06:27:07.032Z,14.11
2024-04-06T06:28:07.028Z,14.14
2024-04-06T06:29:07.024Z,14.17
2024-04-06T06:30:07.011Z,14.26
2024-04-06T06:31:06.961Z,14.33
2024-04-06T06:32:06.970Z,14.35
2024-04-06T06:33:07.008Z,14.43
2024-04-06T06:34:06.958Z,14.43
2024-04-06T06:35:06.919Z,14.51
2024-04-06T06:38:06.933Z,14.65
2024-04-06T06:41:06.860Z,14.63
2024-04-06T06:42:06.849Z,14.70
2024-04-06T06:43:06.873Z,14.73
2024-04-06T06:44:07.058Z,14.68
2024-04-06T06:45:06.835Z,14.82
2024-04-06T06:46:06.809Z,14.78
2024-04-06T06:47:06.808Z,14.81
2024-04-06T06:48:06.791Z,14.82
2024-04-06T06:49:06.806Z,14.82
2024-04-06T06:50:06.790Z,14.91
2024-04-06T06:51:06.773Z,15.00
2024-04-06T06:52:06.766Z,14.92
2024-04-06T06:53:06.962Z,15.07
2024-04-06T06:54:06.740Z,15.07
2024-04-06T06:55:06.998Z,15.14
2024-04-06T06:56:07.347Z,15.27
2024-04-06T06:57:06.709Z,15.31
2024-04-06T06:58:06.688Z,15.39
2024-04-06T06:59:06.664Z,15.42
2024-04-06T07:01:06.670Z,15.44
2024-04-06T07:02:06.716Z,15.44
2024-04-06T07:03:06.651Z,15.44
2024-04-06T07:04:06.652Z,15.54
2024-04-06T07:05:06.603Z,15.58
2024-04-06T07:06:06.602Z,15.58
2024-04-06T07:07:08.510Z,15.68
2024-04-06T07:08:06.587Z,15.67
2024-04-06T07:09:06.551Z,15.75
2024-04-06T07:10:08.666Z,15.80
2024-04-06T07:11:06.539Z,15.90
2024-04-06T07:12:06.537Z,15.91
2024-04-06T07:13:06.561Z,15.92
2024-04-06T07:14:06.568Z,15.97
2024-04-06T07:15:06.499Z,15.94
2024-04-06T07:16:06.496Z,16.01
2024-04-06T07:17:06.477Z,16.13
2024-04-06T07:18:06.462Z,16.23
2024-04-06T07:19:06.530Z,16.20
2024-04-06T07:20:06.475Z,16.29
2024-04-06T07:21:06.447Z,16.31
2024-04-06T07:22:06.476Z,16.35
2024-04-06T07:23:06.427Z,16.31
2024-04-06T07:24:06.428Z,16.33
2024-04-06T07:25:06.422Z,16.35
2024-04-06T07:26:06.410Z,16.36
2024-04-06T07:27:06.415Z,16.41
2024-04-06T07:28:06.404Z,16.38
2024-04-06T07:29:06.383Z,16.43
2024-04-06T07:30:06.347Z,16.36
2024-04-06T07:31:06.351Z,16.43
2024-04-06T07:32:06.354Z,16.49
2024-04-06T07:33:06.306Z,16.39
2024-04-06T07:34:06.345Z,16.41
2024-04-06T07:35:06.330Z,16.43
2024-04-06T07:36:06.279Z,16.50
2024-04-06T07:37:06.322Z,16.50
2024-04-06T07:38:06.310Z,16.65
2024-04-06T07:40:06.459Z,16.61
2024-04-06T07:41:06.218Z,16.65
2024-04-06T07:42:06.208Z,16.68
2024-04-06T07:43:06.368Z,16.64
2024-04-06T07:44:06.209Z,16.74
2024-04-06T07:45:06.196Z,16.71
2024-04-06T07:46:06.368Z,16.66
2024-04-06T07:47:06.193Z,16.72
2024-04-06T07:48:06.151Z,16.81
2024-04-06T07:49:06.164Z,16.74
2024-04-06T07:50:06.152Z,16.76
2024-04-06T07:51:06.137Z,16.76
2024-04-06T07:52:06.207Z,16.79
2024-04-06T07:53:06.101Z,16.84
2024-04-06T07:54:06.126Z,16.83
2024-04-06T07:55:06.095Z,16.94
2024-04-06T07:56:06.076Z,16.93
2024-04-06T07:57:06.109Z,17.02
2024-04-06T07:58:06.073Z,17.09
2024-04-06T07:59:06.053Z,17.08
2024-04-06T08:00:06.059Z,17.20
2024-04-06T08:01:06.031Z,17.19
2024-04-06T08:02:06.001Z,17.20
2024-04-06T08:03:07.488Z,17.26
2024-04-06T08:04:06.040Z,17.30
2024-04-06T08:05:05.971Z,17.34
2024-04-06T08:06:06.000Z,17.38
2024-04-06T08:07:06.724Z,17.36
2024-04-06T08:08:05.933Z,17.30
2024-04-06T08:09:05.945Z,17.42
2024-04-06T08:10:05.969Z,17.42
2024-04-06T08:11:05.914Z,17.48
2024-04-06T08:12:06.132Z,17.49
2024-04-06T08:13:05.910Z,17.51
2024-04-06T08:14:13.686Z,17.60
2024-04-06T08:15:07.088Z,17.63
2024-04-06T08:16:05.906Z,17.65
2024-04-06T08:17:05.859Z,17.68
2024-04-06T08:18:05.838Z,17.68
2024-04-06T08:19:05.869Z,17.72
2024-04-06T08:20:05.822Z,17.65
2024-04-06T08:21:06.020Z,17.76
2024-04-06T08:22:05.837Z,17.72
2024-04-06T08:23:05.825Z,17.79
2024-04-06T08:24:05.793Z,17.78
2024-04-06T08:25:05.778Z,17.76
2024-04-06T08:26:05.768Z,17.76
2024-04-06T08:27:05.787Z,17.79
2024-04-06T08:28:05.732Z,17.94
2024-04-06T08:29:05.736Z,17.94
2024-04-06T08:30:05.751Z,17.95
2024-04-06T08:31:05.699Z,17.98
2024-04-06T08:32:05.703Z,17.94
2024-04-06T08:33:07.213Z,18.08
2024-04-06T08:34:05.824Z,18.05
2024-04-06T08:35:05.657Z,18.10
2024-04-06T08:36:05.703Z,18.07
2024-04-06T08:37:05.626Z,18.03
2024-04-06T08:38:05.716Z,18.05
2024-04-06T08:39:05.608Z,18.18
2024-04-06T08:40:05.690Z,18.22
2024-04-06T08:41:05.609Z,18.20
2024-04-06T08:42:05.619Z,18.34
2024-04-06T08:43:05.796Z,18.29
2024-04-06T08:44:05.558Z,18.35
2024-04-06T08:45:05.554Z,18.26
2024-04-06T08:46:05.768Z,18.37
2024-04-06T08:47:05.521Z,18.38
2024-04-06T08:48:05.558Z,18.38
2024-04-06T08:49:05.505Z,18.40
2024-04-06T08:50:05.491Z,18.35
2024-04-06T08:51:05.478Z,18.41
2024-04-06T08:52:05.472Z,18.35
2024-04-06T08:53:05.462Z,18.40
2024-04-06T08:54:05.504Z,18.37
2024-04-06T08:55:05.494Z,18.35
2024-04-06T08:56:05.426Z,18.33
2024-04-06T08:57:05.416Z,18.41
2024-04-06T08:58:05.410Z,18.50
2024-04-06T08:59:05.442Z,18.49
2024-04-06T09:00:05.387Z,18.53
2024-04-06T09:01:05.382Z,18.53
2024-04-06T09:02:05.609Z,18.63
2024-04-06T09:03:05.370Z,18.65
2024-04-06T09:04:05.350Z,18.73
2024-04-06T09:05:05.388Z,18.70
2024-04-06T09:06:05.368Z,18.75
2024-04-06T09:07:05.534Z,18.84
2024-04-06T09:08:05.296Z,18.78
2024-04-06T09:09:05.356Z,18.81
2024-04-06T09:10:05.331Z,18.96
2024-04-06T09:11:05.260Z,18.88
2024-04-06T09:12:05.257Z,18.93
2024-04-06T09:13:05.238Z,18.92
2024-04-06T09:14:05.284Z,18.90
2024-04-06T09:15:05.216Z,18.98
2024-04-06T09:16:05.223Z,19.04
2024-04-06T09:17:05.193Z,19.12
2024-04-06T09:18:05.193Z,19.18
2024-04-06T09:19:05.177Z,19.18
2024-04-06T09:20:07.018Z,19.26
2024-04-06T09:21:05.163Z,19.16
2024-04-06T09:22:05.175Z,19.29
2024-04-06T09:23:05.177Z,19.26
2024-04-06T09:24:05.127Z,19.37
2024-04-06T09:25:05.116Z,19.34
2024-04-06T09:26:05.136Z,19.48
2024-04-06T09:27:05.090Z,19.45
2024-04-06T09:28:05.081Z,19.41
2024-04-06T09:29:19.250Z,19.41
2024-04-06T09:32:23.091Z,19.39
2024-04-06T09:33:20.863Z,19.44
2024-04-06T09:34:21.162Z,19.40
2024-04-06T09:35:20.964Z,19.40
2024-04-06T09:36:20.837Z,19.48
2024-04-06T09:37:20.867Z,19.41
2024-04-06T09:38:23.867Z,19.47
2024-04-06T09:39:20.792Z,19.37
2024-04-06T09:40:21.178Z,19.45
2024-04-06T09:41:20.771Z,19.44
2024-04-06T09:42:20.787Z,19.48
2024-04-06T09:43:20.766Z,19.54
2024-04-06T09:44:23.048Z,19.63
2024-04-06T09:45:20.895Z,19.69
2024-04-06T09:46:20.718Z,19.77
2024-04-06T09:47:20.768Z,19.73
2024-04-06T09:48:20.734Z,19.84
2024-04-06T09:49:20.757Z,19.89
2024-04-06T09:50:22.581Z,19.94
2024-04-06T09:51:20.671Z,19.94
2024-04-06T09:52:20.778Z,19.91
2024-04-06T09:53:20.647Z,19.96
2024-04-06T09:54:20.636Z,19.94
2024-04-06T09:55:20.681Z,19.99
2024-04-06T09:56:23.282Z,19.91
2024-04-06T09:57:21.596Z,19.95
2024-04-06T09:58:20.635Z,19.94
2024-04-06T09:59:20.580Z,19.94
2024-04-06T10:00:20.928Z,19.96
2024-04-06T10:01:20.626Z,20.03
2024-04-06T10:02:23.287Z,20.00
2024-04-06T10:03:20.541Z,20.03
2024-04-06T10:04:20.536Z,20.06
2024-04-06T10:05:20.598Z,20.00
2024-04-06T10:06:20.575Z,20.10
2024-04-06T10:07:20.559Z,20.00
2024-04-06T10:08:22.676Z,20.06
2024-04-06T10:09:20.489Z,20.10
2024-04-06T10:10:20.476Z,20.11
2024-04-06T10:11:20.632Z,20.13
2024-04-06T10:12:20.469Z,20.19
2024-04-06T10:13:20.477Z,20.31
2024-04-06T10:14:20.417Z,20.36
2024-04-06T10:15:20.541Z,20.41
2024-04-06T10:16:20.456Z,20.56
2024-04-06T10:17:20.385Z,20.66
2024-04-06T10:18:20.388Z,20.66
2024-04-06T10:19:20.433Z,20.80
2024-04-06T10:20:20.380Z,20.81
2024-04-06T10:21:20.368Z,20.81
2024-04-06T10:22:20.358Z,20.87
2024-04-06T10:23:20.366Z,20.85
2024-04-06T10:24:20.322Z,20.92
2024-04-06T10:25:20.481Z,20.84
2024-04-06T10:26:20.381Z,20.87
2024-04-06T10:27:20.352Z,20.90
2024-04-06T10:28:20.297Z,20.97
2024-04-06T10:29:20.256Z,20.85
2024-04-06T10:30:20.254Z,20.95
2024-04-06T10:31:26.376Z,20.93
2024-04-06T10:32:21.226Z,20.99
2024-04-06T10:33:20.278Z,21.03
2024-04-06T10:34:20.280Z,21.05
2024-04-06T10:35:20.208Z,21.02
2024-04-06T10:36:20.222Z,21.09
2024-04-06T10:37:20.267Z,21.11
2024-04-06T10:38:20.166Z,21.20
2024-04-06T10:39:20.478Z,21.21
2024-04-06T10:40:20.442Z,21.22
2024-04-06T10:41:20.333Z,21.30
2024-04-06T10:42:20.120Z,21.30
2024-04-06T10:43:20.237Z,21.51
2024-04-06T10:44:20.318Z,21.48
2024-04-06T10:45:20.097Z,21.57
2024-04-06T10:46:20.146Z,21.57
2024-04-06T10:47:20.085Z,21.66
2024-04-06T10:48:20.214Z,21.64
2024-04-06T10:49:20.287Z,21.77
2024-04-06T10:50:20.030Z,21.89
2024-04-06T10:51:20.041Z,21.96
2024-04-06T10:52:20.077Z,21.93
2024-04-06T10:53:20.126Z,21.92
2024-04-06T10:54:19.995Z,22.04
2024-04-06T10:55:20.179Z,21.93
2024-04-06T10:56:19.971Z,22.08
2024-04-06T10:57:19.959Z,22.14
2024-04-06T10:58:19.977Z,22.26
2024-04-06T10:59:19.954Z,22.20
2024-04-06T11:00:19.927Z,22.22
2024-04-06T11:01:20.195Z,22.20
2024-04-06T11:02:19.933Z,22.26
2024-04-06T11:03:19.911Z,22.29
2024-04-06T11:04:19.953Z,22.33
2024-04-06T11:05:19.885Z,22.33
2024-04-06T11:06:19.863Z,22.39
2024-04-06T11:07:19.903Z,22.33
2024-04-06T11:08:19.864Z,22.51
2024-04-06T11:09:19.836Z,22.57
2024-04-06T11:10:19.875Z,22.55
2024-04-06T11:11:19.819Z,22.57
2024-04-06T11:12:19.817Z,22.51
2024-04-06T11:13:19.827Z,22.54
2024-04-06T11:14:19.807Z,22.65
2024-04-06T11:15:19.776Z,22.53
2024-04-06T11:16:19.801Z,22.44
2024-04-06T11:17:19.783Z,22.51
2024-04-06T11:18:19.876Z,22.50
2024-04-06T11:19:19.790Z,22.50
2024-04-06T11:20:19.751Z,22.63
2024-04-06T11:21:19.705Z,22.62
2024-04-06T11:22:19.771Z,22.68
2024-04-06T11:23:19.677Z,22.68
2024-04-06T11:24:20.006Z,22.68
2024-04-06T11:25:19.720Z,22.68
2024-04-06T11:26:19.688Z,22.84
2024-04-06T11:27:19.679Z,22.75
2024-04-06T11:28:19.635Z,22.94
2024-04-06T11:29:19.617Z,22.96
2024-04-06T11:30:19.613Z,23.03
2024-04-06T11:31:19.646Z,22.96
2024-04-06T11:32:19.658Z,22.96
2024-04-06T11:33:19.573Z,23.02
2024-04-06T11:34:19.594Z,23.00
2024-04-06T11:35:19.599Z,23.05
2024-04-06T11:36:19.549Z,23.03
2024-04-06T11:37:19.617Z,23.08
2024-04-06T11:38:19.619Z,23.02
2024-04-06T11:39:19.508Z,22.96
2024-04-06T11:40:19.538Z,22.99
2024-04-06T11:41:19.488Z,22.98
2024-04-06T11:42:19.626Z,23.02
2024-04-06T11:43:19.531Z,22.98
2024-04-06T11:44:19.477Z,23.00
2024-04-06T11:45:19.447Z,22.94
2024-04-06T11:46:19.488Z,22.94
2024-04-06T11:47:19.433Z,22.94
2024-04-06T11:48:19.482Z,22.88
2024-04-06T11:49:19.435Z,22.94
2024-04-06T11:50:19.434Z,22.94
2024-04-06T11:51:19.380Z,22.88
2024-04-06T11:52:19.399Z,22.85
2024-04-06T11:53:19.367Z,22.81
2024-04-06T11:54:19.395Z,22.78
2024-04-06T11:55:19.366Z,22.83
2024-04-06T11:56:19.366Z,22.87
2024-04-06T11:57:19.322Z,22.81
2024-04-06T11:58:19.362Z,22.81
2024-04-06T11:59:19.301Z,22.83
2024-04-06T12:00:21.833Z,22.80
2024-04-06T12:01:19.313Z,22.78
2024-04-06T12:02:19.330Z,22.85
2024-04-06T12:03:19.264Z,22.94
2024-04-06T12:04:19.274Z,22.91
2024-04-06T12:05:19.460Z,22.98
2024-04-06T12:06:19.435Z,23.09
2024-04-06T12:07:19.263Z,23.09
2024-04-06T12:08:19.227Z,23.18
2024-04-06T12:09:19.224Z,23.24
2024-04-06T12:10:19.335Z,23.23
2024-04-06T12:11:19.201Z,23.34
2024-04-06T12:12:19.418Z,23.34
2024-04-06T12:13:19.182Z,23.41
2024-04-06T12:14:19.204Z,23.34
2024-04-06T12:15:19.139Z,23.37
2024-04-06T12:16:19.157Z,23.40
2024-04-06T12:17:19.117Z,23.40
2024-04-06T12:18:19.420Z,23.39
2024-04-06T12:19:19.111Z,23.46
2024-04-06T12:20:19.104Z,23.28
2024-04-06T12:21:19.068Z,23.40
2024-04-06T12:22:19.259Z,23.39
2024-04-06T12:23:19.072Z,23.37
2024-04-06T12:24:19.060Z,23.41
2024-04-06T12:25:19.079Z,23.40
2024-04-06T12:26:19.086Z,23.44
2024-04-06T12:27:19.006Z,23.40
2024-04-06T12:28:19.046Z,23.37
2024-04-06T12:29:19.021Z,23.41
2024-04-06T12:30:18.981Z,23.41
2024-04-06T12:31:19.054Z,23.27
2024-04-06T12:32:18.996Z,23.34
2024-04-06T12:33:18.996Z,23.39
2024-04-06T12:34:19.313Z,23.41
2024-04-06T12:35:19.246Z,23.40
2024-04-06T12:36:18.914Z,23.46
2024-04-06T12:37:18.920Z,23.50
2024-04-06T12:38:18.909Z,23.56
2024-04-06T12:39:19.021Z,23.62
2024-04-06T12:40:18.907Z,23.65
2024-04-06T12:41:18.861Z,23.69
2024-04-06T12:42:18.860Z,23.81
2024-04-06T12:43:18.845Z,23.92
2024-04-06T12:44:18.917Z,23.88
2024-04-06T12:45:18.811Z,23.91
2024-04-06T12:46:18.909Z,23.86
2024-04-06T12:47:18.807Z,23.87
2024-04-06T12:48:19.091Z,23.84
2024-04-06T12:49:18.808Z,23.80
2024-04-06T12:50:18.809Z,23.80
2024-04-06T12:51:19.087Z,23.88
2024-04-06T12:52:18.823Z,23.84
2024-04-06T12:53:18.772Z,23.88
2024-04-06T12:54:18.919Z,23.92
2024-04-06T12:55:18.770Z,23.88
2024-04-06T12:56:18.700Z,23.88
2024-04-06T12:57:18.740Z,23.86
2024-04-06T12:58:18.681Z,23.93
2024-04-06T12:59:18.663Z,23.95
2024-04-06T13:00:18.701Z,24.01